Barra Alegre, Brazil
Current Conditions -  °F | °C
As of 10:00 AM on Sunday 25 Jan 2015 (Local Time) from SBLS Reporting Station
Few Clouds Few Clouds  
Wind Chill: 75°   Ceiling: Unl
Heat Index: 75°   Visibility: 6mi
Dew Point: 63°   Wind: 8mph
Humidity: 65%   Direction: 80°E
Pressure: 30.12"   Gusts: NA
Location:  19.45°S, 42.62°W
Report Text: SBLS 251200Z 08007KT 9999 FEW030 24/17 Q1020
Loading
Personal Weather Stations






























Interactive Weather Map New forecast layout! Learn more

10-Day Weather Forecast

Advertisements
Track Severe Weather on mobile